El Paso, TX (88541)

5:17 PM MDT on August 24, 2016 (GMT -0600)
Montwood and Wedgewood | | Change Station

Elev 3957 ft 31.77 °N, 106.35 °W | Updated 31 seconds ago

Scattered Clouds
Scattered Clouds
93.1 °F
Feels Like 90 °F
N
2.0
Wind Variable Wind from West
Gusts 10.0 mph

Today
High -- | Low -- °F
--% Chance of Precip.
Yesterday
High -- | Low -- °F
Precip. -- in
Pressure 29.82 in
Visibility 10.0 miles
Clouds Scattered Clouds 10000 ft
Scattered Clouds 25000 ft
Heat Index 90 °F
Dew Point 50 °F
Humidity 23%
Rainfall 0.00 in
Snow Depth Not available.
6:36 AM 7:38 PM
Waning Gibbous, 52% visible
METAR KELP 242251Z VRB04KT 10SM SCT100 SCT250 32/09 A3004 RMK AO2 SLP098 T03170089
Pressure 29.82 in
Visibility 10.0 miles
Clouds Scattered Clouds 10000 ft
Scattered Clouds 25000 ft
Heat Index 90 °F
Dew Point 50 °F
Humidity 23%
Rainfall 0.00 in
Snow Depth Not available.
6:36 AM 7:38 PM
Waning Gibbous, 52% visible
METAR KELP 242251Z VRB04KT 10SM SCT100 SCT250 32/09 A3004 RMK AO2 SLP098 T03170089

10-Day Weather Forecast

Almanac

Astronomy

Aug. 24, 2016 Rise Set
Actual Time
Civil Twilight
Nautical Twilight
Astronomical Twilight
Moon
Length of Visible Light
Length of Day
Tomorrow will be .
, % of the Moon is Illuminated

Today's Extremes

State Highs State Lows

Community

WunderPhotos

Upload Photos

1,934,731 photos uploaded!

WunderBlog® & News

Nearby

Air Quality

  Air Quality AQ Index Pollutant
Not available.

Snow Depth

Station Depth Elevation

Earthquake Activity

City Distance Mag. Time & Date
Minimum magnitude displayed is 2.5.

Coastal Water Temperatures

Place Temperature

Stations

Nearby Weather Stations

Station Location Temp. Windchill Dew Point Humidity Wind Precip. Elev Updated Type
                   

Watches & Warnings

There are currently no watches in effect.